createdAt,value
2022-11-12T00:01:04.744Z,3.03
2022-11-12T00:03:32.565Z,1.80
2022-11-12T00:06:01.734Z,1.80
2022-11-12T00:08:30.031Z,2.10
2022-11-12T00:10:58.023Z,2.27
2022-11-12T00:13:25.800Z,2.10
2022-11-12T00:15:53.568Z,2.03
2022-11-12T00:18:21.379Z,1.50
2022-11-12T00:20:49.240Z,1.77
2022-11-12T00:23:18.441Z,1.93
2022-11-12T00:25:46.327Z,1.60
2022-11-12T00:28:14.125Z,1.50
2022-11-12T00:30:42.535Z,1.53
2022-11-12T00:33:10.418Z,1.83
2022-11-12T00:35:38.204Z,1.73
2022-11-12T00:38:06.007Z,1.80
2022-11-12T00:40:35.153Z,1.80
2022-11-12T00:43:02.916Z,1.87
2022-11-12T00:45:30.729Z,1.40
2022-11-12T00:47:58.538Z,1.70
2022-11-12T00:50:26.576Z,1.67
2022-11-12T00:52:54.712Z,1.63
2022-11-12T00:55:22.719Z,1.37
2022-11-12T00:57:51.865Z,1.77
2022-11-12T01:00:20.682Z,2.27
2022-11-12T01:02:51.355Z,1.40
2022-11-12T01:05:20.109Z,1.50
2022-11-12T01:07:53.130Z,1.70
2022-11-12T01:10:23.626Z,1.53
2022-11-12T01:12:52.858Z,1.47
2022-11-12T01:15:20.652Z,1.40
2022-11-12T01:17:48.479Z,1.83
2022-11-12T01:20:16.449Z,2.00
2022-11-12T01:22:44.252Z,1.47
2022-11-12T01:25:12.106Z,1.60
2022-11-12T01:27:39.946Z,1.73
2022-11-12T01:30:10.588Z,1.60
2022-11-12T01:32:38.416Z,1.60
2022-11-12T01:35:06.959Z,1.63
2022-11-12T01:37:34.771Z,1.67
2022-11-12T01:40:02.618Z,1.60
2022-11-12T01:42:32.995Z,1.77
2022-11-12T01:45:00.806Z,1.60
2022-11-12T01:47:31.971Z,1.60
2022-11-12T01:50:15.151Z,1.50
2022-11-12T01:52:46.106Z,1.80
2022-11-12T01:55:18.270Z,1.50
2022-11-12T01:57:52.131Z,2.07
2022-11-12T02:00:20.535Z,1.63
2022-11-12T02:02:54.371Z,1.83
2022-11-12T02:05:23.484Z,1.70
2022-11-12T02:07:52.492Z,1.40
2022-11-12T02:10:20.803Z,1.97
2022-11-12T02:13:08.060Z,2.17
2022-11-12T02:15:36.140Z,1.60
2022-11-12T02:18:05.718Z,1.73
2022-11-12T02:20:35.059Z,1.50
2022-11-12T02:23:04.701Z,1.80
2022-11-12T02:25:33.139Z,1.80
2022-11-12T02:28:01.841Z,1.50
2022-11-12T02:30:34.474Z,1.80
2022-11-12T02:33:03.766Z,1.90
2022-11-12T02:35:31.686Z,1.80
2022-11-12T02:37:59.765Z,1.97
2022-11-12T02:40:29.020Z,2.00
2022-11-12T02:42:56.957Z,1.60
2022-11-12T02:45:24.803Z,1.60
2022-11-12T02:47:52.655Z,1.60
2022-11-12T02:50:20.578Z,1.53
2022-11-12T02:52:48.383Z,1.50
2022-11-12T02:55:16.300Z,1.50
2022-11-12T02:57:45.450Z,1.80
2022-11-12T03:00:14.733Z,1.83
2022-11-12T03:02:43.513Z,1.67
2022-11-12T03:05:12.058Z,1.90
2022-11-12T03:07:40.158Z,1.53
2022-11-12T03:10:08.536Z,1.80
2022-11-12T03:12:36.497Z,1.60
2022-11-12T03:15:06.466Z,1.57
2022-11-12T03:17:35.993Z,1.70
2022-11-12T03:20:03.962Z,2.10
2022-11-12T03:22:31.759Z,1.93
2022-11-12T03:24:59.526Z,1.43
2022-11-12T03:27:27.399Z,1.70
2022-11-12T03:29:55.198Z,1.73
2022-11-12T03:32:24.479Z,2.13
2022-11-12T03:34:55.426Z,2.00
2022-11-12T03:37:23.578Z,1.40
2022-11-12T03:39:51.341Z,1.80
2022-11-12T03:42:19.172Z,2.00
2022-11-12T03:44:46.967Z,1.77
2022-11-12T03:47:14.777Z,1.57
2022-11-12T03:49:43.906Z,1.90
2022-11-12T03:52:11.751Z,1.60
2022-11-12T03:54:39.529Z,1.80
2022-11-12T03:57:07.315Z,1.80
2022-11-12T03:59:35.110Z,2.17
2022-11-12T04:02:02.945Z,2.63
2022-11-12T04:04:50.712Z,1.80
2022-11-12T04:07:37.255Z,3.00
2022-11-12T04:10:05.672Z,1.77
2022-11-12T04:12:50.974Z,1.80
2022-11-12T04:15:18.742Z,2.50
2022-11-12T04:18:04.245Z,1.97
2022-11-12T04:21:01.053Z,1.30
2022-11-12T04:23:30.442Z,1.60
2022-11-12T04:26:15.981Z,1.67
2022-11-12T04:29:03.971Z,2.00
2022-11-12T04:31:31.050Z,1.70
2022-11-12T04:34:19.289Z,1.60
2022-11-12T04:36:47.077Z,1.70
2022-11-12T04:39:16.206Z,1.67
2022-11-12T04:42:01.406Z,1.30
2022-11-12T04:44:46.795Z,1.43
2022-11-12T04:47:14.586Z,2.40
2022-11-12T04:49:42.392Z,1.93
2022-11-12T04:52:10.702Z,1.87
2022-11-12T04:54:39.855Z,1.80
2022-11-12T04:57:07.759Z,1.30
2022-11-12T04:59:35.548Z,1.90
2022-11-12T05:02:03.411Z,1.60
2022-11-12T05:04:31.215Z,1.70
2022-11-12T05:07:00.319Z,1.63
2022-11-12T05:09:29.939Z,2.07
2022-11-12T05:11:59.222Z,2.00
2022-11-12T05:14:27.034Z,1.43
2022-11-12T05:16:54.846Z,2.10
2022-11-12T05:19:22.643Z,2.00
2022-11-12T05:22:13.904Z,2.00
2022-11-12T05:24:50.003Z,1.77
2022-11-12T05:27:20.821Z,1.97
2022-11-12T05:29:48.656Z,1.40
2022-11-12T05:32:18.358Z,1.70
2022-11-12T05:34:46.178Z,1.80
2022-11-12T05:37:15.633Z,1.80
2022-11-12T05:39:43.449Z,1.67
2022-11-12T05:42:13.303Z,1.60
2022-11-12T05:44:43.171Z,2.10
2022-11-12T05:47:10.979Z,1.90
2022-11-12T05:49:38.815Z,1.90
2022-11-12T05:52:06.664Z,1.97
2022-11-12T05:54:34.467Z,1.70
2022-11-12T05:57:02.292Z,2.77
2022-11-12T05:59:30.101Z,1.93
2022-11-12T06:01:59.469Z,1.90
2022-11-12T06:04:27.818Z,1.90
2022-11-12T06:06:55.674Z,2.20
2022-11-12T06:09:23.513Z,1.90
2022-11-12T06:11:51.310Z,2.37
2022-11-12T06:14:19.158Z,1.90
2022-11-12T06:16:46.948Z,1.97
2022-11-12T06:19:16.110Z,1.90
2022-11-12T06:21:43.910Z,1.50
2022-11-12T06:24:12.034Z,1.80
2022-11-12T06:26:39.832Z,1.60
2022-11-12T06:29:07.626Z,1.53
2022-11-12T06:31:35.450Z,1.40
2022-11-12T06:34:03.244Z,2.07
2022-11-12T06:36:32.497Z,1.83
2022-11-12T06:39:00.293Z,2.13
2022-11-12T06:41:28.100Z,2.23
2022-11-12T06:43:55.885Z,1.80
2022-11-12T06:46:23.684Z,2.50
2022-11-12T06:48:51.619Z,1.60
2022-11-12T06:51:21.161Z,1.80
2022-11-12T06:53:51.800Z,1.47
2022-11-12T06:56:19.638Z,1.50
2022-11-12T06:58:47.544Z,1.70
2022-11-12T07:01:17.647Z,1.70
2022-11-12T07:03:46.078Z,2.37
2022-11-12T07:06:15.235Z,1.80
2022-11-12T07:08:43.442Z,1.93
2022-11-12T07:11:12.712Z,1.77
2022-11-12T07:13:40.841Z,1.60
2022-11-12T07:16:09.394Z,1.83
2022-11-12T07:18:37.209Z,1.50
2022-11-12T07:21:07.466Z,1.87
2022-11-12T07:23:37.143Z,1.73
2022-11-12T07:26:07.037Z,2.07
2022-11-12T07:28:36.259Z,1.70
2022-11-12T07:31:06.796Z,1.47
2022-11-12T07:33:35.378Z,1.93
2022-11-12T07:36:04.990Z,1.60
2022-11-12T07:38:34.610Z,1.77
2022-11-12T07:41:03.332Z,1.60
2022-11-12T07:43:31.643Z,1.50
2022-11-12T07:46:07.533Z,2.00
2022-11-12T07:48:38.723Z,1.43
2022-11-12T07:51:08.321Z,1.63
2022-11-12T07:53:36.131Z,1.50
2022-11-12T07:56:05.402Z,1.90
2022-11-12T07:58:34.613Z,1.53
2022-11-12T08:01:11.633Z,2.03
2022-11-12T08:03:39.505Z,1.90
2022-11-12T08:06:07.937Z,2.07
2022-11-12T08:08:35.751Z,1.80
2022-11-12T08:11:03.532Z,1.70
2022-11-12T08:13:31.363Z,1.97
2022-11-12T08:15:59.418Z,1.50
2022-11-12T08:18:29.052Z,1.50
2022-11-12T08:21:01.298Z,1.53
2022-11-12T08:23:30.480Z,1.77
2022-11-12T08:26:02.516Z,1.53
2022-11-12T08:28:31.314Z,2.00
2022-11-12T08:30:59.666Z,1.50
2022-11-12T08:33:28.813Z,1.70
2022-11-12T08:35:56.616Z,2.00
2022-11-12T08:38:24.642Z,1.37
2022-11-12T08:40:52.705Z,1.73
2022-11-12T08:43:20.718Z,1.60
2022-11-12T08:45:49.985Z,1.57
2022-11-12T08:48:18.013Z,1.90
2022-11-12T08:50:47.173Z,1.80
2022-11-12T08:53:15.282Z,2.20
2022-11-12T08:55:43.119Z,2.10
2022-11-12T08:58:11.212Z,2.10
2022-11-12T09:00:41.189Z,1.63
2022-11-12T09:03:14.169Z,2.17
2022-11-12T09:05:42.151Z,2.27
2022-11-12T09:08:12.893Z,2.17
2022-11-12T09:10:40.994Z,2.23
2022-11-12T09:13:08.901Z,2.10
2022-11-12T09:15:38.223Z,2.30
2022-11-12T09:18:08.720Z,2.67
2022-11-12T09:20:36.626Z,3.10
2022-11-12T09:23:06.708Z,2.90
2022-11-12T09:25:36.634Z,3.73
2022-11-12T09:28:09.386Z,3.37
2022-11-12T09:30:37.705Z,3.90
2022-11-12T09:33:05.882Z,4.50
2022-11-12T09:35:33.796Z,3.90
2022-11-12T09:38:01.625Z,3.53
2022-11-12T09:40:42.441Z,3.90
2022-11-12T09:43:18.265Z,3.63
2022-11-12T09:46:06.276Z,3.97
2022-11-12T09:48:40.937Z,3.80
2022-11-12T09:51:14.646Z,4.43
2022-11-12T09:53:48.882Z,4.00
2022-11-12T09:56:21.283Z,4.07
2022-11-12T09:58:49.425Z,4.10
2022-11-12T10:01:22.313Z,3.90
2022-11-12T10:04:02.614Z,3.60
2022-11-12T10:06:36.086Z,2.60
2022-11-12T10:09:10.502Z,2.87
2022-11-12T10:12:16.818Z,3.87
2022-11-12T10:15:24.268Z,3.57
2022-11-12T10:17:58.124Z,3.17
2022-11-12T10:20:35.924Z,2.90
2022-11-12T10:23:19.337Z,3.40
2022-11-12T10:25:49.016Z,3.30
2022-11-12T10:28:39.500Z,2.80
2022-11-12T10:31:13.116Z,3.10
2022-11-12T10:33:41.060Z,3.30
2022-11-12T10:36:30.919Z,3.03
2022-11-12T10:38:58.969Z,3.20
2022-11-12T10:41:30.744Z,3.00
2022-11-12T10:44:01.574Z,3.60
2022-11-12T10:46:31.010Z,3.10
2022-11-12T10:49:01.944Z,2.60
2022-11-12T10:51:32.954Z,2.00
2022-11-12T10:54:19.639Z,2.50
2022-11-12T10:56:54.983Z,1.70
2022-11-12T10:59:25.548Z,1.73
2022-11-12T11:01:58.596Z,2.43
2022-11-12T11:04:31.568Z,2.00
2022-11-12T11:07:01.506Z,2.53
2022-11-12T11:09:29.315Z,2.13
2022-11-12T11:11:57.366Z,2.37
2022-11-12T11:14:29.340Z,2.10
2022-11-12T11:17:00.420Z,3.93
2022-11-12T11:19:34.545Z,2.90
2022-11-12T11:22:11.304Z,2.80
2022-11-12T11:24:48.512Z,2.43
2022-11-12T11:27:30.228Z,2.90
2022-11-12T11:30:09.933Z,2.97
2022-11-12T11:33:02.936Z,3.27
2022-11-12T11:35:54.896Z,3.50
2022-11-12T11:38:35.946Z,3.47
2022-11-12T11:41:18.857Z,3.27
2022-11-12T11:43:58.687Z,2.93
2022-11-12T11:46:51.106Z,3.13
2022-11-12T11:49:52.620Z,2.70
2022-11-12T11:52:40.460Z,2.63
2022-11-12T11:55:25.013Z,2.87
2022-11-12T11:58:01.367Z,2.60
2022-11-12T12:00:40.337Z,3.23
2022-11-12T12:03:29.166Z,2.73
2022-11-12T12:06:17.070Z,2.20
2022-11-12T12:09:04.114Z,2.53
2022-11-12T12:11:37.111Z,2.67
2022-11-12T12:14:19.486Z,2.87
2022-11-12T12:16:57.294Z,2.90
2022-11-12T12:19:47.540Z,3.13
2022-11-12T12:22:19.837Z,3.50
2022-11-12T12:24:51.339Z,2.23
2022-11-12T12:27:23.614Z,2.43
2022-11-12T12:29:54.647Z,2.40
2022-11-12T12:32:28.035Z,1.97
2022-11-12T12:35:05.531Z,2.00
2022-11-12T12:37:39.153Z,1.73
2022-11-12T12:40:18.544Z,2.33
2022-11-12T12:42:52.135Z,1.97
2022-11-12T12:45:35.914Z,2.53
2022-11-12T12:48:08.209Z,2.67
2022-11-12T12:50:40.813Z,2.13
2022-11-12T12:53:19.086Z,1.93
2022-11-12T12:55:50.342Z,1.97
2022-11-12T12:58:27.685Z,2.50
2022-11-12T13:01:01.751Z,2.47
2022-11-12T13:03:52.225Z,2.63
2022-11-12T13:06:30.744Z,2.03
2022-11-12T13:09:02.852Z,1.70
2022-11-12T13:12:12.312Z,2.17
2022-11-12T13:15:12.001Z,2.13
2022-11-12T13:17:53.346Z,2.67
2022-11-12T13:20:39.884Z,2.73
2022-11-12T13:23:59.539Z,3.17
2022-11-12T13:26:49.780Z,2.27
2022-11-12T13:29:42.885Z,2.53
2022-11-12T13:32:35.764Z,1.93
2022-11-12T13:35:37.417Z,2.57
2022-11-12T13:38:13.134Z,1.90
2022-11-12T13:40:45.999Z,2.70
2022-11-12T13:43:36.024Z,2.23
2022-11-12T13:46:28.177Z,2.20
2022-11-12T13:49:00.698Z,2.80
2022-11-12T13:51:38.526Z,2.37
2022-11-12T13:54:31.890Z,2.37
2022-11-12T14:00:09.726Z,2.90
2022-11-12T14:02:41.606Z,2.43
2022-11-12T14:05:17.618Z,2.73
2022-11-12T14:07:55.922Z,3.87
2022-11-12T14:10:36.507Z,4.27
2022-11-12T14:13:22.414Z,4.20
2022-11-12T14:16:15.892Z,4.43
2022-11-12T14:18:59.697Z,3.33
2022-11-12T14:21:27.584Z,2.93
2022-11-12T14:23:55.689Z,2.30
2022-11-12T14:26:44.433Z,2.20
2022-11-12T14:29:18.135Z,2.90
2022-11-12T14:31:47.851Z,2.50
2022-11-12T14:34:22.696Z,2.30
2022-11-12T14:36:52.663Z,2.73
2022-11-12T14:39:20.541Z,2.40
2022-11-12T14:41:49.222Z,2.50
2022-11-12T14:44:21.343Z,2.27
2022-11-12T14:46:53.758Z,2.20
2022-11-12T14:49:28.561Z,2.90
2022-11-12T14:52:04.572Z,2.40
2022-11-12T14:54:36.296Z,3.27
2022-11-12T14:57:05.320Z,3.10
2022-11-12T14:59:33.963Z,1.90
2022-11-12T15:05:01.872Z,2.57
2022-11-12T15:07:32.191Z,2.20
2022-11-12T15:10:00.064Z,2.03
2022-11-12T15:12:31.005Z,2.20
2022-11-12T15:15:09.616Z,2.00
2022-11-12T15:17:38.966Z,1.97
2022-11-12T15:20:14.629Z,2.17
2022-11-12T15:22:42.460Z,2.03
2022-11-12T15:25:21.349Z,1.93
2022-11-12T15:27:49.958Z,2.30
2022-11-12T15:30:23.496Z,2.30
2022-11-12T15:33:09.184Z,2.17
2022-11-12T15:35:39.262Z,2.70
2022-11-12T15:38:13.383Z,2.00
2022-11-12T15:40:46.600Z,1.83
2022-11-12T15:43:17.532Z,2.33
2022-11-12T15:45:49.552Z,1.53
2022-11-12T15:48:18.933Z,1.97
2022-11-12T15:50:47.224Z,2.50
2022-11-12T15:53:15.526Z,1.97
2022-11-12T15:55:44.969Z,2.33
2022-11-12T15:58:17.265Z,1.73
2022-11-12T16:00:45.284Z,3.03
2022-11-12T16:03:16.390Z,1.50
2022-11-12T16:05:45.848Z,1.77
2022-11-12T16:08:14.008Z,2.20
2022-11-12T16:10:43.866Z,2.67
2022-11-12T16:13:16.115Z,2.70
2022-11-12T16:15:44.037Z,2.13
2022-11-12T16:18:12.163Z,1.60
2022-11-12T16:20:40.255Z,1.97
2022-11-12T16:23:09.378Z,1.93
2022-11-12T16:25:39.176Z,1.83
2022-11-12T16:28:14.057Z,2.60
2022-11-12T16:30:42.315Z,2.40
2022-11-12T16:33:12.137Z,2.67
2022-11-12T16:35:41.026Z,3.10
2022-11-12T16:38:15.413Z,2.60
2022-11-12T16:40:43.958Z,2.33
2022-11-12T16:43:11.943Z,2.73
2022-11-12T16:45:40.983Z,2.23
2022-11-12T16:48:13.933Z,1.90
2022-11-12T16:50:41.786Z,2.37
2022-11-12T16:53:09.567Z,2.83
2022-11-12T16:55:38.845Z,3.17
2022-11-12T16:58:06.848Z,2.17
2022-11-12T17:00:35.156Z,2.83
2022-11-12T17:03:02.943Z,2.50
2022-11-12T17:05:30.932Z,3.00
2022-11-12T17:07:59.382Z,4.40
2022-11-12T17:10:27.174Z,3.50
2022-11-12T17:12:56.330Z,2.83
2022-11-12T17:15:24.133Z,3.80
2022-11-12T17:17:54.255Z,2.47
2022-11-12T17:20:22.061Z,3.17
2022-11-12T17:22:49.836Z,3.00
2022-11-12T17:25:17.686Z,2.87
2022-11-12T17:27:45.477Z,2.60
2022-11-12T17:30:15.208Z,3.15
2022-11-12T17:32:43.839Z,3.07
2022-11-12T17:35:11.709Z,2.87
2022-11-12T17:37:39.521Z,4.10
2022-11-12T17:40:08.846Z,3.07
2022-11-12T17:42:36.654Z,2.53
2022-11-12T17:45:04.745Z,2.97
2022-11-12T17:47:39.328Z,3.30
2022-11-12T17:50:09.110Z,3.00
2022-11-12T17:52:36.977Z,3.63
2022-11-12T17:55:05.305Z,4.20
2022-11-12T17:57:33.089Z,4.27
2022-11-12T18:00:00.906Z,4.07
2022-11-12T18:02:28.708Z,3.97
2022-11-12T18:04:57.945Z,4.07
2022-11-12T18:07:25.805Z,4.20
2022-11-12T18:09:53.789Z,5.00
2022-11-12T18:12:21.654Z,4.10
2022-11-12T18:14:49.454Z,4.37
2022-11-12T18:17:17.263Z,4.70
2022-11-12T18:19:45.054Z,4.10
2022-11-12T18:22:15.502Z,5.23
2022-11-12T18:24:43.463Z,5.73
2022-11-12T18:27:11.313Z,5.03
2022-11-12T18:29:40.263Z,4.83
2022-11-12T18:32:08.034Z,5.67
2022-11-12T18:34:36.110Z,5.90
2022-11-12T18:37:03.902Z,6.50
2022-11-12T18:39:33.055Z,4.90
2022-11-12T18:42:13.166Z,5.43
2022-11-12T18:44:41.062Z,6.20
2022-11-12T18:47:08.877Z,6.40
2022-11-12T18:49:36.661Z,5.67
2022-11-12T18:52:04.564Z,6.10
2022-11-12T18:54:33.779Z,7.90
2022-11-12T18:57:01.600Z,6.30
2022-11-12T18:59:30.812Z,7.03
2022-11-12T19:01:58.697Z,7.37
2022-11-12T19:04:26.527Z,6.83
2022-11-12T19:06:54.463Z,7.43
2022-11-12T19:09:22.336Z,8.33
2022-11-12T19:11:51.484Z,7.23
2022-11-12T19:14:19.276Z,7.33
2022-11-12T19:16:47.149Z,7.80
2022-11-12T19:19:16.065Z,6.47
2022-11-12T19:21:43.931Z,6.83
2022-11-12T19:24:11.769Z,8.20
2022-11-12T19:26:39.577Z,7.50
2022-11-12T19:29:08.711Z,8.30
2022-11-12T19:31:36.810Z,8.80
2022-11-12T19:34:04.628Z,9.10
2022-11-12T19:36:32.414Z,8.20
2022-11-12T19:39:02.506Z,8.10
2022-11-12T19:41:30.373Z,8.10
2022-11-12T19:43:58.207Z,8.70
2022-11-12T19:46:27.603Z,8.77
2022-11-12T19:48:55.888Z,8.27
2022-11-12T19:51:24.364Z,8.70
2022-11-12T19:53:52.350Z,8.07
2022-11-12T19:56:21.478Z,9.17
2022-11-12T19:58:50.336Z,8.50
2022-11-12T20:01:19.926Z,9.10
2022-11-12T20:03:49.568Z,8.40
2022-11-12T20:06:20.207Z,10.17
2022-11-12T20:08:48.039Z,8.83
2022-11-12T20:11:18.272Z,9.17
2022-11-12T20:13:46.137Z,8.60
2022-11-12T20:16:18.407Z,9.40
2022-11-12T20:18:52.867Z,9.50
2022-11-12T20:21:20.688Z,9.30
2022-11-12T20:23:48.481Z,8.83
2022-11-12T20:26:17.255Z,9.10
2022-11-12T20:28:45.391Z,9.07
2022-11-12T20:31:14.823Z,8.57
2022-11-12T20:33:43.094Z,9.60
2022-11-12T20:36:14.126Z,11.00
2022-11-12T20:38:43.421Z,9.50
2022-11-12T20:41:14.266Z,8.87
2022-11-12T20:43:42.369Z,11.00
2022-11-12T20:46:11.222Z,10.87
2022-11-12T20:48:43.304Z,9.40
2022-11-12T20:51:23.576Z,10.57
2022-11-12T20:53:58.783Z,10.40
2022-11-12T20:56:29.692Z,11.27
2022-11-12T20:58:58.094Z,11.40
2022-11-12T21:01:26.938Z,10.87
2022-11-12T21:03:54.779Z,11.20
2022-11-12T21:06:25.997Z,11.57
2022-11-12T21:08:54.114Z,10.70
2022-11-12T21:11:23.754Z,11.27
2022-11-12T21:13:51.690Z,10.90
2022-11-12T21:16:19.483Z,11.60
2022-11-12T21:18:47.289Z,9.80
2022-11-12T21:21:17.184Z,10.53
2022-11-12T21:23:49.125Z,12.20
2022-11-12T21:26:18.632Z,11.93
2022-11-12T21:28:48.249Z,10.07
2022-11-12T21:31:17.967Z,10.40
2022-11-12T21:33:45.795Z,10.33
2022-11-12T21:36:16.615Z,11.53
2022-11-12T21:38:46.138Z,11.13
2022-11-12T21:41:15.800Z,12.23
2022-11-12T21:43:45.032Z,10.30
2022-11-12T21:46:16.139Z,10.83
2022-11-12T21:48:44.274Z,11.17
2022-11-12T21:51:13.581Z,10.40
2022-11-12T21:53:43.093Z,11.00
2022-11-12T21:56:14.042Z,10.93
2022-11-12T21:58:42.170Z,10.00
2022-11-12T22:01:12.763Z,9.63
2022-11-12T22:03:41.107Z,10.20
2022-11-12T22:06:08.955Z,10.73
2022-11-12T22:08:36.812Z,9.73
2022-11-12T22:11:06.405Z,9.70
2022-11-12T22:13:36.154Z,10.23
2022-11-12T22:16:08.271Z,10.27
2022-11-12T22:18:36.680Z,9.80
2022-11-12T22:21:06.770Z,9.30
2022-11-12T22:23:35.960Z,9.57
2022-11-12T22:26:04.574Z,10.30
2022-11-12T22:28:33.791Z,11.50
2022-11-12T22:31:06.048Z,9.50
2022-11-12T22:33:34.071Z,9.77
2022-11-12T22:36:02.851Z,9.70
2022-11-12T22:38:34.944Z,9.60
2022-11-12T22:41:04.855Z,9.93
2022-11-12T22:43:33.650Z,9.60
2022-11-12T22:46:07.131Z,8.93
2022-11-12T22:48:35.991Z,10.10
2022-11-12T22:51:06.173Z,9.43
2022-11-12T22:53:34.657Z,9.47
2022-11-12T22:56:03.840Z,9.33
2022-11-12T22:58:31.672Z,9.17
2022-11-12T23:00:59.557Z,7.77
2022-11-12T23:03:31.002Z,9.07
2022-11-12T23:05:59.701Z,9.20
2022-11-12T23:08:27.755Z,8.70
2022-11-12T23:10:55.982Z,7.83
2022-11-12T23:13:26.983Z,8.20
2022-11-12T23:15:54.820Z,9.13
2022-11-12T23:18:22.633Z,7.50
2022-11-12T23:20:51.868Z,8.50
2022-11-12T23:23:19.827Z,8.30
2022-11-12T23:25:47.714Z,8.50
2022-11-12T23:28:15.507Z,9.13
2022-11-12T23:30:49.678Z,7.60
2022-11-12T23:33:17.475Z,7.67
2022-11-12T23:35:45.256Z,7.90
2022-11-12T23:38:14.380Z,7.57
2022-11-12T23:40:42.315Z,7.50
2022-11-12T23:43:10.125Z,7.40
2022-11-12T23:45:38.308Z,7.53
2022-11-12T23:48:06.732Z,8.03
2022-11-12T23:50:34.552Z,7.50
2022-11-12T23:53:05.470Z,7.33
2022-11-12T23:55:38.478Z,8.17
2022-11-12T23:58:06.534Z,7.80
